Time;durP1;ratioP1;P1;durP2;ratioP2;P2;SDS_P1;SDS_P2;PMS_P1;PMS_P2;Temp;Humidity;BMP_temperature;BMP_pressure;BME280_temperature;BME280_humidity;BME280_pressure;Samples;Min_cycle;Max_cycle;Signal;HPM_P1;HPM_P2
2020/12/15 00:01:57;;;;;;;14.40;6.93;;;14.70;62.70;;;;;;6217191;23;20444;-66
2020/12/15 00:04:26;;;;;;;14.98;6.40;;;;;;;;;;6234736;23;20387;-67
2020/12/15 00:06:52;;;;;;;11.60;6.47;;;;;;;;;;6243862;22;20012;-67
2020/12/15 00:09:18;;;;;;;8.88;5.65;;;;;;;;;;6242102;23;20094;-67
2020/12/15 00:11:45;;;;;;;11.45;5.90;;;;;;;;;;6243625;22;20543;-67
2020/12/15 00:14:11;;;;;;;12.60;5.93;;;;;;;;;;6243622;22;20004;-68
2020/12/15 00:16:37;;;;;;;9.77;5.90;;;;;;;;;;6243423;23;20015;-66
2020/12/15 00:19:03;;;;;;;13.43;5.63;;;;;;;;;;6243889;23;20016;-68
2020/12/15 00:21:30;;;;;;;10.27;5.90;;;;;;;;;;6244066;22;20008;-67
2020/12/15 00:23:56;;;;;;;8.73;5.07;;;;;;;;;;6243757;22;20013;-66
2020/12/15 00:26:26;;;;;;;13.38;5.78;;;;;;;;;;6243880;23;20016;-66
2020/12/15 00:28:52;;;;;;;11.73;5.38;;;;;;;;;;6243360;23;20011;-68
2020/12/15 00:31:19;;;;;;;14.73;5.82;;;;;;;;;;6244032;23;20099;-67
2020/12/15 00:33:45;;;;;;;11.40;5.55;;;14.60;63.30;;;;;;6243789;23;20067;-67
2020/12/15 00:36:19;;;;;;;11.65;5.70;;;14.50;63.10;;;;;;6243962;23;20026;-68
2020/12/15 00:38:45;;;;;;;9.10;5.25;;;;;;;;;;6245804;22;20012;-68
2020/12/15 00:41:11;;;;;;;9.68;5.22;;;;;;;;;;6245807;23;20004;-68
2020/12/15 00:43:38;;;;;;;10.90;5.93;;;;;;;;;;6245290;23;20011;-68
2020/12/15 00:46:04;;;;;;;8.45;5.07;;;;;;;;;;6245642;23;20016;-67
2020/12/15 00:48:31;;;;;;;11.70;5.57;;;;;;;;;;6245791;22;20054;-67
2020/12/15 00:50:57;;;;;;;13.60;5.85;;;;;;;;;;6245787;23;20012;-68
2020/12/15 00:53:23;;;;;;;11.35;5.53;;;;;;;;;;6245522;23;20019;-67
2020/12/15 00:55:49;;;;;;;9.27;5.05;;;;;;;;;;6245665;23;20012;-68
2020/12/15 00:58:16;;;;;;;10.52;5.68;;;;;;;;;;6243908;23;20091;-65
2020/12/15 01:00:42;;;;;;;11.00;5.38;;;;;;;;;;6243864;23;20467;-67
2020/12/15 01:03:09;;;;;;;12.98;5.97;;;;;;;;;;6218236;23;20345;-67
2020/12/15 01:05:35;;;;;;;10.27;5.43;;;;;;;;;;6243999;23;20054;-68
2020/12/15 01:08:01;;;;;;;12.23;5.65;;;;;;;;;;6245620;23;20040;-70
2020/12/15 01:10:28;;;;;;;13.32;6.05;;;;;;;;;;6243918;23;20015;-67
2020/12/15 01:12:54;;;;;;;8.48;5.38;;;;;;;;;;6244011;23;20011;-67
2020/12/15 01:15:21;;;;;;;10.80;5.53;;;;;;;;;;6244039;23;20008;-66
2020/12/15 01:17:47;;;;;;;10.00;5.70;;;;;;;;;;6244130;23;20039;-68
2020/12/15 01:20:16;;;;;;;13.80;5.97;;;;;;;;;;6244127;23;20035;-67
2020/12/15 01:22:44;;;;;;;13.65;5.63;;;;;;;;;;6244096;23;20016;-67
2020/12/15 01:25:20;;;;;;;10.45;5.70;;;;;;;;;;6244013;23;20385;-67
2020/12/15 01:27:55;;;;;;;12.23;5.78;;;;;;;;;;6243655;23;20087;-69
2020/12/15 01:30:21;;;;;;;14.18;5.88;;;;;;;;;;6218395;23;20371;-68
2020/12/15 01:33:13;;;;;;;10.27;5.72;;;;;;;;;;6245343;23;20012;-69
2020/12/15 01:36:02;;;;;;;14.57;5.15;;;;;;;;;;6245328;22;20034;-68
2020/12/15 01:38:43;;;;;;;11.48;5.70;;;14.40;64.20;;;;;;6245462;22;20012;-68
2020/12/15 01:41:11;;;;;;;8.65;5.35;;;14.40;64.30;;;;;;6243869;23;20083;-69
2020/12/15 01:43:37;;;;;;;8.75;5.03;;;;;;;;;;6245381;22;20107;-68
2020/12/15 01:46:04;;;;;;;9.43;5.57;;;;;;;;;;6243665;23;20012;-67
2020/12/15 01:48:33;;;;;;;11.48;5.85;;;;;;;;;;6243360;23;20008;-67
2020/12/15 01:51:01;;;;;;;9.00;5.60;;;;;;;;;;6243692;23;20012;-68
2020/12/15 01:53:29;;;;;;;11.40;5.50;;;;;;;;;;6245224;22;20008;-68
2020/12/15 01:55:59;;;;;;;12.05;5.60;;;;;;;;;;6243561;23;20496;-66
2020/12/15 01:58:25;;;;;;;8.85;5.07;;;;;;;;;;6242956;23;20023;-66
2020/12/15 02:01:03;;;;;;;8.82;4.88;;;;;;;;;;6245053;22;20030;-70
2020/12/15 02:03:30;;;;;;;9.77;5.40;;;;;;;;;;6243146;23;20012;-67
2020/12/15 02:06:25;;;;;;;9.70;5.82;;;;;;;;;;6152055;23;20016;-66
2020/12/15 02:09:12;;;;;;;9.52;4.90;;;;;;;;;;6127219;23;20036;-69
2020/12/15 02:11:44;;;;;;;9.77;5.68;;;14.30;64.80;;;;;;6151882;23;20412;-68
2020/12/15 02:14:12;;;;;;;10.93;5.05;;;;;;;;;;6151741;23;20005;-68
2020/12/15 02:16:40;;;;;;;16.60;5.47;;;14.20;64.70;;;;;;6152028;23;20024;-66
2020/12/15 02:19:15;;;;;;;11.95;5.20;;;14.30;65.10;;;;;;6127303;23;20096;-68
2020/12/15 02:21:57;;;;;;;12.57;5.47;;;14.30;65.20;;;;;;6151935;23;20020;-66
2020/12/15 02:24:28;;;;;;;9.50;5.03;;;;;;;;;;6151657;23;20014;-66
2020/12/15 02:27:01;;;;;;;13.35;5.25;;;;;;;;;;6151426;23;20252;-66
2020/12/15 02:29:35;;;;;;;10.95;5.38;;;;;;;;;;6151473;23;20061;-67
2020/12/15 02:32:01;;;;;;;11.40;5.20;;;;;;;;;;6151717;23;20097;-66
2020/12/15 02:34:35;;;;;;;10.88;5.20;;;;;;;;;;6126856;23;20016;-66
2020/12/15 02:37:10;;;;;;;9.75;5.32;;;14.50;64.80;;;;;;6151624;23;20017;-67
2020/12/15 02:39:48;;;;;;;13.93;6.03;;;;;;;;;;6151564;23;20017;-67
2020/12/15 02:42:39;;;;;;;9.43;5.00;;;;;;;;;;6191317;23;20100;-66
2020/12/15 02:45:06;;;;;;;9.57;5.28;;;;;;;;;;6243167;23;20047;-66
2020/12/15 02:47:33;;;;;;;9.45;4.95;;;;;;;;;;6242720;23;20421;-66
2020/12/15 02:49:59;;;;;;;10.55;5.03;;;;;;;;;;6243112;23;20008;-66
2020/12/15 02:52:26;;;;;;;11.40;5.38;;;;;;;;;;6242944;23;20008;-67
2020/12/15 02:54:55;;;;;;;13.65;5.68;;;;;;;;;;6242586;23;20468;-66
2020/12/15 02:57:24;;;;;;;11.05;5.70;;;;;;;;;;6242740;23;20019;-66
2020/12/15 02:59:51;;;;;;;;;;;14.40;64.50;;;;;;6243074;23;20070;-65
2020/12/15 03:02:20;;;;;;;9.05;5.03;;;;;;;;;;6242966;23;19957;-67
2020/12/15 03:04:51;;;;;;;14.50;5.68;;;;;;;;;;6242742;23;20031;-67
2020/12/15 03:07:17;;;;;;;10.43;4.95;;;;;;;;;;6244586;22;20023;-66
2020/12/15 03:09:49;;;;;;;9.88;5.25;;;;;;;;;;6242992;23;20378;-66
2020/12/15 03:12:16;;;;;;;10.18;5.70;;;;;;;;;;6242826;23;20004;-67
2020/12/15 03:14:49;;;;;;;11.30;5.75;;;;;;;;;;6242635;23;20079;-66
2020/12/15 03:17:19;;;;;;;10.43;5.45;;;;;;;;;;6242603;23;20098;-67
2020/12/15 03:19:46;;;;;;;9.52;5.05;;;;;;;;;;6242515;23;20008;-66
2020/12/15 03:22:14;;;;;;;11.98;5.72;;;14.80;63.60;;;;;;6242760;23;20012;-66
2020/12/15 03:24:46;;;;;;;9.55;5.00;;;;;;;;;;6242905;23;20019;-66
2020/12/15 03:27:15;;;;;;;12.20;5.57;;;;;;;;;;6242476;23;20009;-65
2020/12/15 03:29:41;;;;;;;12.40;5.63;;;;;;;;;;6242215;23;20004;-67
2020/12/15 03:32:09;;;;;;;11.38;5.40;;;;;;;;;;6242655;23;20035;-66
2020/12/15 03:34:36;;;;;;;7.65;4.88;;;;;;;;;;6216989;23;20000;-65
2020/12/15 03:37:03;;;;;;;12.73;4.93;;;;;;;;;;6242095;23;20005;-67
2020/12/15 03:39:35;;;;;;;11.93;5.63;;;;;;;;;;6242057;23;20456;-66
2020/12/15 03:42:05;;;;;;;9.38;5.43;;;;;;;;;;6242531;23;20012;-67
2020/12/15 03:44:31;;;;;;;13.32;5.30;;;;;;;;;;6242003;23;20483;-66
2020/12/15 03:47:06;;;;;;;11.75;5.47;;;;;;;;;;6242573;23;20004;-66
2020/12/15 03:49:33;;;;;;;8.68;5.15;;;;;;;;;;6242023;23;20425;-66
2020/12/15 03:51:59;;;;;;;7.97;4.53;;;;;;;;;;6241689;23;20078;-66
2020/12/15 03:54:28;;;;;;;9.77;5.43;;;;;;;;;;6244016;23;20012;-66
2020/12/15 03:57:13;;;;;;;10.18;5.30;;;;;;;;;;6243309;23;20005;-67
2020/12/15 03:59:54;;;;;;;11.85;5.68;;;;;;;;;;6241726;23;20020;-66
2020/12/15 04:02:20;;;;;;;11.18;5.30;;;;;;;;;;6242363;23;20016;-66
2020/12/15 04:04:47;;;;;;;12.50;5.15;;;;;;;;;;6216766;23;20024;-67
2020/12/15 04:07:15;;;;;;;10.10;4.93;;;;;;;;;;6242353;23;20050;-65
2020/12/15 04:09:43;;;;;;;10.88;5.95;;;14.80;63.40;;;;;;6242126;23;20008;-66
2020/12/15 04:12:11;;;;;;;11.02;5.18;;;;;;;;;;6242027;23;20008;-67
2020/12/15 04:14:41;;;;;;;11.13;5.43;;;14.80;63.10;;;;;;6216643;23;20015;-66
2020/12/15 04:17:09;;;;;;;9.65;5.43;;;;;;;;;;6242245;23;20138;-65
2020/12/15 04:19:36;;;;;;;10.85;5.18;;;14.60;63.20;;;;;;6242400;23;20081;-67
2020/12/15 04:22:03;;;;;;;8.43;4.88;;;14.80;63.10;;;;;;6241754;23;20030;-65
2020/12/15 04:24:40;;;;;;;9.52;4.97;;;;;;;;;;6242062;23;20312;-65
2020/12/15 04:27:06;;;;;;;15.52;5.88;;;;;;;;;;6216485;23;20008;-66
2020/12/15 04:29:35;;;;;;;14.25;6.38;;;;;;;;;;6216892;23;20019;-67
2020/12/15 04:32:06;;;;;;;11.82;5.50;;;;;;;;;;6242057;23;20012;-66
2020/12/15 04:34:44;;;;;;;11.32;5.90;;;;;;;;;;6242251;23;20008;-65
2020/12/15 04:37:11;;;;;;;11.85;4.95;;;;;;;;;;6242072;23;20008;-66
2020/12/15 04:39:48;;;;;;;13.05;4.97;;;;;;;;;;6241943;23;20004;-66
2020/12/15 04:42:17;;;;;;;15.35;5.68;;;;;;;;;;6241832;23;20012;-66
2020/12/15 04:44:46;;;;;;;10.07;5.13;;;;;;;;;;6242053;23;20008;-64
2020/12/15 04:47:33;;;;;;;10.57;5.38;;;14.80;62.60;;;;;;6241251;23;20310;-66
2020/12/15 04:50:07;;;;;;;9.75;5.53;;;14.70;62.90;;;;;;6242278;23;20008;-66
2020/12/15 04:52:53;;;;;;;9.43;5.20;;;14.50;63.40;;;;;;6216516;23;20008;-64
2020/12/15 04:55:32;;;;;;;9.70;5.47;;;;;;;;;;6216771;23;20444;-66
2020/12/15 04:58:01;;;;;;;8.95;5.05;;;;;;;;;;6241733;23;20046;-65
2020/12/15 05:00:28;;;;;;;11.52;4.80;;;;;;;;;;6242388;23;20108;-68
2020/12/15 05:03:10;;;;;;;10.60;5.30;;;;;;;;;;6241558;22;21339;-66
2020/12/15 05:05:37;;;;;;;13.27;5.05;;;;;;;;;;6216409;23;20008;-65
2020/12/15 05:08:05;;;;;;;10.52;5.32;;;;;;;;;;6216704;23;20009;-65
2020/12/15 05:10:48;;;;;;;12.13;5.15;;;;;;;;;;6216655;23;20166;-67
2020/12/15 05:13:31;;;;;;;8.85;4.93;;;14.60;63.30;;;;;;6216652;23;20040;-66
2020/12/15 05:15:58;;;;;;;9.50;5.15;;;;;;;;;;6243184;23;20008;-67
2020/12/15 05:18:40;;;;;;;11.23;5.20;;;;;;;;;;6216334;23;20048;-66
2020/12/15 05:21:16;;;;;;;9.70;4.97;;;14.40;63.40;;;;;;6216753;23;20043;-65
2020/12/15 05:23:49;;;;;;;;;;;14.50;63.90;;;;;;6217737;23;20039;-66
2020/12/15 05:26:26;;;;;;;9.25;5.32;;;14.50;63.10;;;;;;6192986;23;20335;-66
2020/12/15 05:29:05;;;;;;;12.25;5.93;;;14.50;63.20;;;;;;6217994;23;20004;-66
2020/12/15 05:31:40;;;;;;;10.70;5.32;;;14.50;63.00;;;;;;6193761;23;20011;-66
2020/12/15 05:34:29;;;;;;;10.32;5.47;;;;;;;;;;6122486;23;20008;-66
2020/12/15 05:37:14;;;;;;;12.00;5.65;;;;;;;;;;6122302;23;20005;-67
2020/12/15 05:39:59;;;;;;;10.95;5.95;;;14.70;62.60;;;;;;6122535;23;20018;-67
2020/12/15 05:42:28;;;;;;;9.27;5.10;;;;;;;;;;6097856;23;20502;-66
2020/12/15 05:44:56;;;;;;;10.50;5.72;;;14.60;62.50;;;;;;6098081;23;20006;-66
2020/12/15 05:47:24;;;;;;;9.55;5.18;;;14.60;62.80;;;;;;6097850;23;20006;-65
2020/12/15 05:50:01;;;;;;;12.38;5.60;;;;;;;;;;6098138;23;20016;-66
2020/12/15 05:52:29;;;;;;;12.32;5.85;;;;;;;;;;6122240;23;20018;-66
2020/12/15 05:55:08;;;;;;;7.72;5.32;;;14.30;63.20;;;;;;6122377;23;20064;-66
2020/12/15 05:57:34;;;;;;;10.90;5.65;;;;;;;;;;6122019;23;20347;-66
2020/12/15 06:00:10;;;;;;;11.25;5.88;;;14.30;64.20;;;;;;6122049;23;20017;-66
2020/12/15 06:02:41;;;;;;;11.98;5.93;;;14.40;64.20;;;;;;6121944;23;20097;-66
2020/12/15 06:05:07;;;;;;;18.17;6.10;;;;;;;;;;6122002;23;20022;-66
2020/12/15 06:07:34;;;;;;;13.02;5.93;;;;;;;;;;6122509;23;20018;-66
2020/12/15 06:10:02;;;;;;;13.77;5.45;;;14.50;63.30;;;;;;6122066;23;20404;-67
2020/12/15 06:12:28;;;;;;;14.32;5.95;;;;;;;;;;6234095;23;20476;-67
2020/12/15 06:14:55;;;;;;;11.40;6.18;;;;;;;;;;6217714;23;20012;-64
2020/12/15 06:17:21;;;;;;;11.02;6.00;;;14.50;64.10;;;;;;6244432;23;20030;-66
2020/12/15 06:19:53;;;;;;;13.32;5.97;;;14.40;63.90;;;;;;6244183;23;20015;-67
2020/12/15 06:22:21;;;;;;;11.05;5.88;;;14.40;64.10;;;;;;6244258;23;20403;-66
2020/12/15 06:24:55;;;;;;;10.10;6.00;;;14.40;63.90;;;;;;6244593;23;20062;-65
2020/12/15 06:27:33;;;;;;;10.57;5.95;;;14.40;64.00;;;;;;6244168;23;20008;-65
2020/12/15 06:29:59;;;;;;;10.23;5.68;;;14.40;64.10;;;;;;6242322;23;20016;-64
2020/12/15 06:32:27;;;;;;;10.48;6.10;;;;;;;;;;6244405;23;20085;-65
2020/12/15 06:34:54;;;;;;;12.07;5.72;;;;;;;;;;6243943;23;20039;-66
2020/12/15 06:37:22;;;;;;;10.70;5.93;;;14.40;63.90;;;;;;6243692;23;20516;-66
2020/12/15 06:40:05;;;;;;;11.82;5.93;;;14.30;64.20;;;;;;6243904;23;20016;-65
2020/12/15 06:42:36;;;;;;;13.30;5.68;;;;;;;;;;6243548;23;20030;-65
2020/12/15 06:45:08;;;;;;;12.25;5.93;;;14.40;64.10;;;;;;6244007;23;20062;-66
2020/12/15 06:47:35;;;;;;;10.50;6.13;;;14.30;64.50;;;;;;6243415;23;20425;-66
2020/12/15 06:50:18;;;;;;;10.43;5.35;;;14.30;64.60;;;;;;6243774;23;20142;-65
2020/12/15 06:52:46;;;;;;;12.27;6.43;;;;;;;;;;6216669;23;20372;-66
2020/12/15 06:55:12;;;;;;;12.10;5.80;;;;;;;;;;6217452;23;20095;-64
2020/12/15 06:57:39;;;;;;;14.60;5.90;;;14.20;64.90;;;;;;6216459;23;20004;-67
2020/12/15 07:00:10;;;;;;;12.10;6.25;;;14.10;65.40;;;;;;6243391;23;20074;-66
2020/12/15 07:02:36;;;;;;;12.18;5.82;;;;;;;;;;6242626;23;20016;-65
2020/12/15 07:05:28;;;;;;;14.00;6.25;;;14.30;64.80;;;;;;6235260;23;20444;-64
2020/12/15 07:07:56;;;;;;;12.23;6.38;;;14.40;64.60;;;;;;6243732;22;20058;-67
2020/12/15 07:10:23;;;;;;;8.40;5.03;;;14.40;64.50;;;;;;6244040;22;20015;-66
2020/12/15 07:12:50;;;;;;;12.32;6.05;;;14.40;64.60;;;;;;6243238;22;20107;-66
2020/12/15 07:15:17;;;;;;;11.00;5.80;;;14.30;64.50;;;;;;6240537;22;20414;-65
2020/12/15 07:17:44;;;;;;;;;;;14.40;65.00;;;;;;6241240;22;20004;-66
2020/12/15 07:20:11;;;;;;;9.30;5.63;;;14.50;64.20;;;;;;6241446;22;19999;-66
2020/12/15 07:22:37;;;;;;;14.77;6.32;;;;;;;;;;6240706;23;20004;-65
2020/12/15 07:25:04;;;;;;;8.73;5.18;;;;;;;;;;6241162;23;20019;-67
2020/12/15 07:27:32;;;;;;;10.68;5.97;;;14.60;64.20;;;;;;6240594;23;20004;-66
2020/12/15 07:29:58;;;;;;;13.23;5.82;;;;;;;;;;6240143;22;20011;-67
2020/12/15 07:32:26;;;;;;;11.30;5.60;;;14.70;63.70;;;;;;6238580;23;20015;-65
2020/12/15 07:35:04;;;;;;;13.15;6.95;;;14.70;63.40;;;;;;6238843;23;20058;-67
2020/12/15 07:37:31;;;;;;;13.63;6.40;;;;;;;;;;6240782;23;20091;-68
2020/12/15 07:40:03;;;;;;;14.73;6.10;;;14.80;63.30;;;;;;6240370;23;20016;-67
2020/12/15 07:42:30;;;;;;;13.45;6.03;;;;;;;;;;6240329;22;20004;-66
2020/12/15 07:44:58;;;;;;;11.13;6.28;;;14.60;64.10;;;;;;6240678;22;20011;-67
2020/12/15 07:47:26;;;;;;;11.05;6.70;;;14.60;63.90;;;;;;6238211;23;20011;-66
2020/12/15 07:49:54;;;;;;;10.23;6.25;;;14.60;64.30;;;;;;6240841;22;20075;-66
2020/12/15 07:52:31;;;;;;;13.77;5.97;;;14.50;64.20;;;;;;6239795;22;20043;-64
2020/12/15 07:55:03;;;;;;;12.52;6.05;;;14.50;64.50;;;;;;6240660;23;20015;-67
2020/12/15 07:57:32;;;;;;;12.55;6.07;;;14.60;64.40;;;;;;6238451;23;20008;-66
2020/12/15 08:00:24;;;;;;;16.08;7.43;;;14.50;64.50;;;;;;6239949;22;20062;-65
2020/12/15 08:02:51;;;;;;;12.88;6.03;;;14.50;64.40;;;;;;6235286;22;20008;-65
2020/12/15 08:05:24;;;;;;;13.93;6.60;;;14.60;64.80;;;;;;6239561;23;20047;-65
2020/12/15 08:07:56;;;;;;;11.13;6.72;;;14.60;64.50;;;;;;6240400;23;20005;-66
2020/12/15 08:10:30;;;;;;;12.15;6.35;;;14.50;64.90;;;;;;6238918;22;20009;-66
2020/12/15 08:13:01;;;;;;;11.52;6.05;;;14.50;64.90;;;;;;6239743;22;20325;-65
2020/12/15 08:15:36;;;;;;;14.85;6.68;;;14.30;65.30;;;;;;6239394;22;20069;-66
2020/12/15 08:18:03;;;;;;;12.77;6.28;;;14.30;65.20;;;;;;6240108;22;20444;-67
2020/12/15 08:20:34;;;;;;;12.07;5.95;;;14.60;65.00;;;;;;6239032;23;20016;-66
2020/12/15 08:23:06;;;;;;;11.00;6.47;;;14.40;65.30;;;;;;6240449;22;20057;-68
2020/12/15 08:25:32;;;;;;;10.38;6.35;;;;;;;;;;6240513;22;20035;-67
2020/12/15 08:28:13;;;;;;;12.77;6.32;;;14.40;65.60;;;;;;6239842;23;20083;-68
2020/12/15 08:30:40;;;;;;;10.68;5.88;;;14.50;65.30;;;;;;6238299;23;20035;-67
2020/12/15 08:33:07;;;;;;;17.90;7.07;;;;;;;;;;6238285;23;20406;-67
2020/12/15 08:35:33;;;;;;;11.68;6.70;;;;;;;;;;6239943;23;20004;-67
2020/12/15 08:38:02;;;;;;;12.00;6.45;;;14.70;64.90;;;;;;6240521;22;20061;-68
2020/12/15 08:40:29;;;;;;;15.98;6.20;;;14.70;64.70;;;;;;6238468;23;20016;-67
2020/12/15 08:42:59;;;;;;;13.35;6.72;;;14.80;64.60;;;;;;6240240;22;20341;-67
2020/12/15 08:45:26;;;;;;;11.73;5.90;;;14.50;65.30;;;;;;6239889;22;20138;-67
2020/12/15 08:47:54;;;;;;;12.10;6.43;;;14.30;65.70;;;;;;6240009;22;20467;-66
2020/12/15 08:50:20;;;;;;;13.57;6.40;;;;;;;;;;6239743;22;20008;-68
2020/12/15 08:52:47;;;;;;;16.40;6.45;;;;;;;;;;6240067;23;20031;-66
2020/12/15 08:55:14;;;;;;;11.18;6.22;;;14.60;65.10;;;;;;6240361;23;20032;-67
2020/12/15 08:57:40;;;;;;;15.25;6.63;;;;;;;;;;6240920;22;20026;-66
2020/12/15 09:00:12;;;;;;;12.23;6.15;;;14.90;64.50;;;;;;6241857;23;20066;-64
2020/12/15 09:02:39;;;;;;;13.57;6.60;;;;;;;;;;6240955;22;20008;-65
2020/12/15 09:05:09;;;;;;;10.43;6.55;;;15.00;63.80;;;;;;6241285;23;20410;-65
2020/12/15 09:07:47;;;;;;;11.82;5.88;;;;;;;;;;4734431;27;10001609;-66
2020/12/15 09:10:16;;;;;;;11.00;5.78;;;14.80;64.20;;;;;;5067941;28;20036;-66
2020/12/15 09:12:44;;;;;;;13.52;6.00;;;14.90;64.20;;;;;;5085499;28;20062;-66
2020/12/15 09:15:10;;;;;;;15.45;6.72;;;;;;;;;;5084102;28;20063;-66
2020/12/15 09:17:36;;;;;;;13.07;6.03;;;;;;;;;;5085617;28;20028;-66
2020/12/15 09:20:04;;;;;;;13.55;6.05;;;14.70;64.90;;;;;;5084388;28;20155;-66
2020/12/15 09:22:30;;;;;;;11.70;6.30;;;;;;;;;;5085654;28;20094;-64
2020/12/15 09:25:01;;;;;;;11.82;6.35;;;;;;;;;;5077755;28;20510;-64
2020/12/15 09:27:28;;;;;;;11.60;5.93;;;;;;;;;;5051636;28;20091;-65
2020/12/15 09:29:56;;;;;;;9.93;5.80;;;;;;;;;;5062728;28;20032;-66
2020/12/15 09:32:22;;;;;;;19.02;6.25;;;;;;;;;;5062013;28;20064;-66
2020/12/15 09:34:48;;;;;;;10.40;5.95;;;;;;;;;;5052799;28;20105;-65
2020/12/15 09:37:14;;;;;;;16.70;5.95;;;;;;;;;;5063973;28;20028;-65
2020/12/15 09:39:42;;;;;;;14.05;6.22;;;;;;;;;;5065536;28;20079;-65
2020/12/15 09:42:08;;;;;;;10.38;5.93;;;;;;;;;;5071265;28;20047;-65
2020/12/15 09:44:35;;;;;;;9.80;5.63;;;15.20;63.80;;;;;;5073819;28;20051;-65
2020/12/15 09:47:04;;;;;;;13.63;6.60;;;15.10;64.50;;;;;;5078464;28;20562;-65
2020/12/15 09:49:30;;;;;;;11.52;6.22;;;;;;;;;;5083314;28;20036;-64
2020/12/15 09:51:56;;;;;;;17.88;6.75;;;;;;;;;;5079849;28;20035;-65
2020/12/15 09:54:22;;;;;;;11.52;5.97;;;;;;;;;;5083012;28;20034;-66
2020/12/15 09:56:48;;;;;;;11.85;6.63;;;;;;;;;;5081692;28;20067;-65
2020/12/15 09:59:15;;;;;;;11.05;6.18;;;;;;;;;;5081369;28;20035;-67
2020/12/15 10:01:42;;;;;;;12.25;6.00;;;15.30;63.60;;;;;;5074375;28;20041;-66
2020/12/15 10:04:07;;;;;;;;;;;15.30;64.10;;;;;;5065218;28;20372;-65
2020/12/15 10:06:40;;;;;;;15.15;6.70;;;15.40;63.40;;;;;;5077283;28;19922;-67
2020/12/15 10:09:07;;;;;;;13.65;6.90;;;;;;;;;;5074880;28;20029;-66
2020/12/15 10:11:33;;;;;;;14.40;6.75;;;;;;;;;;5075978;28;20490;-66
2020/12/15 10:14:00;;;;;;;13.20;6.95;;;;;;;;;;5074960;28;20027;-66
2020/12/15 10:16:27;;;;;;;13.52;6.07;;;;;;;;;;5074047;28;20104;-65
2020/12/15 10:18:53;;;;;;;11.45;6.55;;;;;;;;;;5064901;28;20029;-66
2020/12/15 10:21:20;;;;;;;11.85;7.00;;;;;;;;;;4702105;28;10000463;-65
2020/12/15 10:23:49;;;;;;;9.90;5.78;;;;;;;;;;5066533;28;20122;-66
2020/12/15 10:26:22;;;;;;;10.38;5.72;;;15.40;63.20;;;;;;5060996;28;20108;-66
2020/12/15 10:28:49;;;;;;;11.50;5.70;;;;;;;;;;5051387;28;20032;-66
2020/12/15 10:31:15;;;;;;;12.57;5.80;;;;;;;;;;5061605;28;20636;-66
2020/12/15 10:33:42;;;;;;;14.90;5.85;;;;;;;;;;5060999;28;20021;-65
2020/12/15 10:36:11;;;;;;;11.18;6.20;;;15.50;63.20;;;;;;5045938;28;20075;-65
2020/12/15 10:38:38;;;;;;;11.25;6.25;;;;;;;;;;5056768;28;20081;-66
2020/12/15 10:41:04;;;;;;;9.35;5.40;;;;;;;;;;5060486;28;20033;-68
2020/12/15 10:43:31;;;;;;;11.65;5.80;;;;;;;;;;5050499;28;20476;-67
2020/12/15 10:45:57;;;;;;;11.07;5.93;;;;;;;;;;5055778;28;20052;-65
2020/12/15 10:48:23;;;;;;;12.90;6.22;;;;;;;;;;5059634;28;20086;-66
2020/12/15 10:50:50;;;;;;;10.80;5.43;;;;;;;;;;5065360;28;20109;-66
2020/12/15 10:53:17;;;;;;;12.18;6.03;;;;;;;;;;5052981;28;20044;-67
2020/12/15 10:55:43;;;;;;;10.38;5.40;;;;;;;;;;5055000;28;20037;-66
2020/12/15 10:58:10;;;;;;;13.43;5.65;;;;;;;;;;5056605;28;20056;-66
2020/12/15 11:00:36;;;;;;;9.30;5.78;;;;;;;;;;5062566;28;20127;-65
2020/12/15 11:03:02;;;;;;;9.57;5.70;;;;;;;;;;5063664;28;20024;-64
2020/12/15 11:05:28;;;;;;;10.40;5.78;;;;;;;;;;5061762;28;20036;-67
2020/12/15 11:07:55;;;;;;;13.40;5.38;;;;;;;;;;5063850;28;20059;-66
2020/12/15 11:10:21;;;;;;;12.13;5.53;;;;;;;;;;5065537;28;20121;-66
2020/12/15 11:12:47;;;;;;;13.90;6.38;;;;;;;;;;5066512;28;20025;-65
2020/12/15 11:15:14;;;;;;;12.15;6.22;;;;;;;;;;5071935;28;20463;-65
2020/12/15 11:17:40;;;;;;;12.85;5.93;;;;;;;;;;5071217;28;20036;-67
2020/12/15 11:20:06;;;;;;;11.98;5.85;;;;;;;;;;5071509;28;20442;-65
2020/12/15 11:22:32;;;;;;;12.18;6.68;;;;;;;;;;5063261;28;20545;-66
2020/12/15 11:24:59;;;;;;;13.10;5.95;;;;;;;;;;5068451;28;20071;-66
2020/12/15 11:27:25;;;;;;;10.70;5.50;;;;;;;;;;5070143;28;20131;-65
2020/12/15 11:29:51;;;;;;;9.73;6.20;;;;;;;;;;5070044;28;20119;-66
2020/12/15 11:32:17;;;;;;;13.95;6.40;;;;;;;;;;5071569;28;20020;-66
2020/12/15 11:34:44;;;;;;;11.20;5.75;;;;;;;;;;5065807;28;20047;-68
2020/12/15 11:37:12;;;;;;;12.27;5.68;;;;;;;;;;5070717;28;20032;-66
2020/12/15 11:39:40;;;;;;;11.35;5.78;;;15.50;64.10;;;;;;5071079;28;20120;-67
2020/12/15 11:42:10;;;;;;;12.20;5.85;;;15.50;64.10;;;;;;5069735;28;20103;-66
2020/12/15 11:44:37;;;;;;;13.82;5.53;;;;;;;;;;5070997;28;20032;-68
2020/12/15 11:47:04;;;;;;;13.68;6.47;;;;;;;;;;5071032;28;20048;-68
2020/12/15 11:49:30;;;;;;;10.85;5.97;;;;;;;;;;5071418;28;20071;-68
2020/12/15 11:51:56;;;;;;;10.63;5.57;;;;;;;;;;5069578;28;20040;-67
2020/12/15 11:54:23;;;;;;;10.88;5.57;;;15.30;64.80;;;;;;5057041;28;20060;-66
2020/12/15 11:56:52;;;;;;;10.38;5.43;;;15.20;65.20;;;;;;5057974;28;20064;-66
2020/12/15 11:59:18;;;;;;;13.23;6.60;;;;;;;;;;5054033;28;20031;-67
2020/12/15 12:01:45;;;;;;;9.73;5.43;;;;;;;;;;5054137;28;20086;-69
2020/12/15 12:04:11;;;;;;;13.32;5.88;;;;;;;;;;5057334;28;20116;-67
2020/12/15 12:06:37;;;;;;;16.17;6.90;;;;;;;;;;5063620;28;20043;-66
2020/12/15 12:09:04;;;;;;;13.43;5.85;;;;;;;;;;5059187;28;20136;-68
2020/12/15 12:11:30;;;;;;;14.82;6.25;;;;;;;;;;5062374;28;20395;-67
2020/12/15 12:13:57;;;;;;;19.40;6.53;;;;;;;;;;5062434;28;20497;-66
2020/12/15 12:16:23;;;;;;;15.82;6.45;;;;;;;;;;5042757;28;20049;-68
2020/12/15 12:18:50;;;;;;;11.60;6.28;;;;;;;;;;5062907;28;20063;-68
2020/12/15 12:21:16;;;;;;;11.48;7.13;;;;;;;;;;5059072;28;20029;-67
2020/12/15 12:23:42;;;;;;;18.48;7.03;;;;;;;;;;5064535;28;20025;-67
2020/12/15 12:26:08;;;;;;;14.63;7.00;;;;;;;;;;5058553;28;20072;-69
2020/12/15 12:28:35;;;;;;;21.40;7.03;;;;;;;;;;5062021;28;20027;-66
2020/12/15 12:31:01;;;;;;;16.23;6.72;;;;;;;;;;5061921;28;20028;-67
2020/12/15 12:33:27;;;;;;;13.48;6.53;;;;;;;;;;5060396;28;20471;-66
2020/12/15 12:35:54;;;;;;;12.48;7.18;;;;;;;;;;5063586;28;20031;-65
2020/12/15 12:38:21;;;;;;;13.35;7.28;;;15.40;65.10;;;;;;5058994;28;20044;-67
2020/12/15 12:40:47;;;;;;;;;;;15.30;65.50;;;;;;5064672;28;20375;-67
2020/12/15 12:43:14;;;;;;;14.02;6.68;;;15.60;64.60;;;;;;5059189;28;20367;-66
2020/12/15 12:45:40;;;;;;;11.60;6.93;;;;;;;;;;5053899;28;20486;-67
2020/12/15 12:48:08;;;;;;;14.10;8.25;;;15.70;64.10;;;;;;5059671;28;20094;-67
2020/12/15 12:50:34;;;;;;;13.60;7.97;;;15.80;64.20;;;;;;5061802;28;20181;-66
2020/12/15 12:53:01;;;;;;;14.23;7.63;;;;;;;;;;5062600;28;20207;-68
2020/12/15 12:55:27;;;;;;;19.02;8.52;;;;;;;;;;5059933;28;20074;-67
2020/12/15 12:57:54;;;;;;;15.15;7.95;;;;;;;;;;5062565;28;20040;-68
2020/12/15 13:00:21;;;;;;;16.33;8.20;;;15.80;63.70;;;;;;5058705;28;20058;-67
2020/12/15 13:02:48;;;;;;;14.63;8.15;;;;;;;;;;5068442;28;20044;-67
2020/12/15 13:05:14;;;;;;;14.77;7.85;;;;;;;;;;5070169;28;20043;-68
2020/12/15 13:07:42;;;;;;;13.25;8.40;;;;;;;;;;5069708;28;20174;-67
2020/12/15 13:10:08;;;;;;;14.32;7.82;;;;;;;;;;5070059;28;20119;-65
2020/12/15 13:12:35;;;;;;;14.20;7.22;;;;;;;;;;5069959;28;20028;-68
2020/12/15 13:15:01;;;;;;;19.02;8.13;;;;;;;;;;5066840;28;20056;-68
2020/12/15 13:17:27;;;;;;;18.77;8.48;;;;;;;;;;5052249;28;20028;-67
2020/12/15 13:19:54;;;;;;;19.15;8.98;;;;;;;;;;5056253;28;20063;-66
2020/12/15 13:22:24;;;;;;;18.65;7.65;;;;;;;;;;5054875;28;20045;-68
2020/12/15 13:24:51;;;;;;;18.50;8.35;;;16.00;64.20;;;;;;5055419;28;20055;-66
2020/12/15 13:27:18;;;;;;;17.63;8.23;;;15.90;63.80;;;;;;5055654;28;20033;-66
2020/12/15 13:29:44;;;;;;;13.43;7.70;;;;;;;;;;5053824;28;20400;-66
2020/12/15 13:32:10;;;;;;;12.35;7.35;;;;;;;;;;5057563;28;20024;-67
2020/12/15 13:34:36;;;;;;;15.50;8.27;;;;;;;;;;5053059;28;20070;-68
2020/12/15 13:37:03;;;;;;;13.40;8.18;;;;;;;;;;5056700;28;20075;-68
2020/12/15 13:39:29;;;;;;;16.00;8.77;;;;;;;;;;5048218;28;20184;-67
2020/12/15 13:41:56;;;;;;;11.95;7.43;;;;;;;;;;5055401;28;20029;-67
2020/12/15 13:44:22;;;;;;;19.98;8.52;;;;;;;;;;5054641;28;20126;-66
2020/12/15 13:46:48;;;;;;;14.20;8.85;;;;;;;;;;5035690;28;20037;-67
2020/12/15 13:49:14;;;;;;;14.40;8.25;;;;;;;;;;5056816;28;20080;-67
2020/12/15 13:51:40;;;;;;;15.73;8.70;;;;;;;;;;5053384;28;20214;-68
2020/12/15 13:54:07;;;;;;;19.23;9.30;;;;;;;;;;5054578;28;20105;-68
2020/12/15 13:56:33;;;;;;;15.10;8.63;;;;;;;;;;5052221;28;20042;-67
2020/12/15 13:59:00;;;;;;;14.82;8.65;;;;;;;;;;5056329;28;20127;-66
2020/12/15 14:01:26;;;;;;;17.27;10.00;;;;;;;;;;5068184;28;20105;-68
2020/12/15 14:03:52;;;;;;;18.80;10.02;;;;;;;;;;5062267;28;20044;-67
2020/12/15 14:06:19;;;;;;;18.42;9.43;;;16.10;63.70;;;;;;5066553;28;20353;-69